Weather History for Southern Pines, NC

Change the Weather History Date:

Friday, July 4, 2014

  Actual Average Record
Temperature  
Mean Temperature 79 °F -  
Max Temperature 89 °F 86 °F 100 °F (2012)
Min Temperature 69 °F 66 °F 57 °F (1996)
Cooling Degree Days 14    
Growing Degree Days 29 (Base 50)    
Moisture  
Dew Point 58 °F    
Average Humidity 51    
Maximum Humidity 73    
Minimum Humidity 33    
Precipitation  
Precipitation 0.00 in - - ()
Sea Level Pressure  
Sea Level Pressure 30.05 in    
Wind  
Wind Speed 5 mph (NNW)    
Max Wind Speed 9 mph    
Max Gust Speed -    
Visibility 10 miles    
Events      
Averages and records for this station are not official NWS values.
T = Trace of Precipitation, MM = Missing Value Source: NWS Daily Summary

Daily Weather History Graph

Daily Weather History Graph

Search for Another Location

Airport:

Trip Planner

Search our weather history database for the weather conditions in past years. The results will help you decide how hot, cold, wet, or windy it might be!

Date:

Astronomy

Jul. 04, 2014 Rise Set
Actual Time 6:08 AM EDT 8:35 PM EDT
Civil Twilight 5:38 AM EDT 9:05 PM EDT
Nautical Twilight 5:01 AM EDT 9:41 PM EDT
Astronomical Twilight 4:21 AM EDT 10:22 PM EDT
Moon 12:46 PM EDT (7/4) 12:11 AM EDT (7/4)
Length of Visible Light 15h 27m
Length of Day
14h 27m
Waxing Crescent, 42% of the Moon is Illuminated
Jul 4
Waxing Crescent
Jul 5
First Quarter
Jul 12
Full
Jul 18
Last Quarter
Jul 26
New

Hourly Weather History & Observations

Time (EDT) Temp. Heat Index Dew Point Humidity Pressure Visibility Wind Dir Wind Speed Gust Speed Precip Events Conditions
12:15 AM 75.2 °F - 66.2 °F 73% 29.91 in 10.0 mi NW 3.5 mph - N/A   Clear
12:35 AM 75.2 °F - 66.2 °F 73% 29.91 in 10.0 mi NW 3.5 mph - N/A   Clear
12:55 AM 75.2 °F - 66.2 °F 73% 29.92 in 10.0 mi NW 5.8 mph - N/A   Partly Cloudy
1:15 AM 75.2 °F - 66.2 °F 73% 29.93 in 10.0 mi NW 5.8 mph - N/A   Mostly Cloudy
1:35 AM 75.2 °F - 64.4 °F 69% 29.94 in 10.0 mi NNW 4.6 mph - N/A   Mostly Cloudy
1:55 AM 75.2 °F - 64.4 °F 69% 29.94 in 10.0 mi NNW 3.5 mph - N/A   Mostly Cloudy
2:15 AM 75.2 °F - 64.4 °F 69% 29.95 in 10.0 mi NNW 5.8 mph - N/A   Scattered Clouds
2:35 AM 73.4 °F - 64.4 °F 73% 29.95 in 10.0 mi NW 5.8 mph - N/A   Mostly Cloudy
2:55 AM 73.4 °F - 64.4 °F 73% 29.94 in 10.0 mi NNW 5.8 mph - N/A   Scattered Clouds
3:15 AM 73.4 °F - 62.6 °F 69% 29.95 in 10.0 mi NW 6.9 mph - N/A   Clear
3:35 AM 73.4 °F - 62.6 °F 69% 29.95 in 10.0 mi NNW 5.8 mph - N/A   Clear
3:55 AM 73.4 °F - 62.6 °F 69% 29.96 in 10.0 mi NW 6.9 mph - N/A   Clear
4:15 AM 73.4 °F - 60.8 °F 65% 29.96 in 10.0 mi NNW 5.8 mph - N/A   Clear
4:35 AM 71.6 °F - 60.8 °F 69% 29.97 in 10.0 mi NW 6.9 mph - N/A   Clear
4:55 AM 71.6 °F - 60.8 °F 69% 29.98 in 10.0 mi NW 5.8 mph - N/A   Clear
5:15 AM 71.6 °F - 59.0 °F 64% 29.98 in 10.0 mi NW 4.6 mph - N/A   Clear
5:35 AM 71.6 °F - 59.0 °F 64% 29.99 in 10.0 mi NNW 4.6 mph - N/A   Clear
5:55 AM 71.6 °F - 57.2 °F 60% 30.00 in 10.0 mi WNW 4.6 mph - N/A   Clear
6:15 AM 69.8 °F - 59.0 °F 68% 30.01 in 10.0 mi NW 3.5 mph - N/A   Clear
6:35 AM 69.8 °F - 57.2 °F 64% 30.02 in 10.0 mi NW 3.5 mph - N/A   Clear
6:55 AM 69.8 °F - 57.2 °F 64% 30.02 in 10.0 mi North 3.5 mph - N/A   Clear
7:15 AM 71.6 °F - 57.2 °F 60% 30.02 in 10.0 mi NNW 5.8 mph - N/A   Clear
7:35 AM 71.6 °F - 57.2 °F 60% 30.03 in 10.0 mi NNW 4.6 mph - N/A   Clear
7:55 AM 71.6 °F - 57.2 °F 60% 30.03 in 10.0 mi North 4.6 mph - N/A   Clear
8:15 AM 73.4 °F - 57.2 °F 57% 30.03 in 10.0 mi North 3.5 mph - N/A   Clear
8:35 AM 73.4 °F - 57.2 °F 57% 30.04 in 10.0 mi North 4.6 mph - N/A   Clear
8:55 AM 75.2 °F - 57.2 °F 53% 30.05 in 10.0 mi North 8.1 mph - N/A   Clear
9:15 AM 77.0 °F - 57.2 °F 50% 30.05 in 10.0 mi North 8.1 mph - N/A   Clear
9:35 AM 77.0 °F - 55.4 °F 47% 30.06 in 10.0 mi North 5.8 mph - N/A   Clear
9:55 AM 78.8 °F - 57.2 °F 47% 30.06 in 10.0 mi NNW 8.1 mph - N/A   Clear
10:15 AM 80.6 °F 80.8 °F 57.2 °F 45% 30.06 in 10.0 mi North 5.8 mph - N/A   Clear
10:35 AM 80.6 °F 80.8 °F 57.2 °F 45% 30.07 in 10.0 mi North 6.9 mph - N/A   Clear
10:55 AM 80.6 °F 80.8 °F 57.2 °F 45% 30.07 in 10.0 mi NE 6.9 mph - N/A   Clear
11:15 AM 82.4 °F 82.0 °F 57.2 °F 42% 30.08 in 10.0 mi North 5.8 mph - N/A   Clear
11:35 AM 82.4 °F 82.0 °F 57.2 °F 42% 30.08 in 10.0 mi ENE 3.5 mph - N/A   Clear
11:55 AM 82.4 °F 82.0 °F 57.2 °F 42% 30.08 in 10.0 mi Calm Calm - N/A   Scattered Clouds
12:15 PM 82.4 °F 82.0 °F 57.2 °F 42% 30.08 in 10.0 mi WNW 4.6 mph - N/A   Mostly Cloudy
12:35 PM 82.4 °F 82.0 °F 57.2 °F 42% 30.08 in 10.0 mi NNE 5.8 mph - N/A   Scattered Clouds
12:55 PM 84.2 °F 83.5 °F 57.2 °F 40% 30.08 in 10.0 mi North 8.1 mph - N/A   Scattered Clouds
1:15 PM 84.2 °F 83.5 °F 57.2 °F 40% 30.08 in 10.0 mi North 4.6 mph - N/A   Unknown
1:35 PM 84.2 °F 83.0 °F 55.4 °F 37% 30.07 in 10.0 mi NNE 6.9 mph - N/A   Overcast
1:55 PM 87.8 °F 86.1 °F 55.4 °F 33% 30.07 in 10.0 mi NNW 6.9 mph - N/A   Scattered Clouds
2:15 PM 87.8 °F 86.1 °F 55.4 °F 33% 30.06 in 10.0 mi NNW 9.2 mph - N/A   Mostly Cloudy
2:35 PM 87.8 °F 86.1 °F 55.4 °F 33% 30.06 in 10.0 mi NNW 5.8 mph - N/A   Partly Cloudy
2:55 PM 87.8 °F 86.1 °F 55.4 °F 33% 30.06 in 10.0 mi NW 4.6 mph - N/A   Scattered Clouds
3:15 PM 87.8 °F 86.1 °F 55.4 °F 33% 30.06 in 10.0 mi NW 5.8 mph - N/A   Mostly Cloudy
3:35 PM 87.8 °F 86.1 °F 55.4 °F 33% 30.06 in 10.0 mi West 3.5 mph - N/A   Mostly Cloudy
3:55 PM 87.8 °F 86.1 °F 55.4 °F 33% 30.06 in 10.0 mi North 3.5 mph - N/A   Overcast
4:15 PM 86.0 °F 84.5 °F 55.4 °F 35% 30.06 in 10.0 mi North 4.6 mph - N/A   Overcast
4:35 PM 89.6 °F 88.1 °F 57.2 °F 33% 30.06 in 10.0 mi NNW 4.6 mph - N/A   Mostly Cloudy
4:55 PM 87.8 °F 86.5 °F 57.2 °F 35% 30.06 in 10.0 mi Calm Calm - N/A   Scattered Clouds
5:15 PM 87.8 °F 86.5 °F 57.2 °F 35% 30.06 in 10.0 mi North 4.6 mph - N/A   Mostly Cloudy
5:35 PM 87.8 °F 86.5 °F 57.2 °F 35% 30.06 in 10.0 mi North 6.9 mph - N/A   Mostly Cloudy
5:55 PM 86.0 °F 84.9 °F 57.2 °F 37% 30.06 in 10.0 mi WNW 5.8 mph - N/A   Partly Cloudy
6:15 PM 87.8 °F 86.5 °F 57.2 °F 35% 30.06 in 10.0 mi NW 5.8 mph - N/A   Clear
6:35 PM 86.0 °F 84.9 °F 57.2 °F 37% 30.07 in 10.0 mi NW 6.9 mph - N/A   Clear
6:55 PM 86.0 °F 84.9 °F 57.2 °F 37% 30.07 in 10.0 mi NNW 4.6 mph - N/A   Clear
7:15 PM 84.2 °F 83.5 °F 57.2 °F 40% 30.08 in 10.0 mi NW 4.6 mph - N/A   Clear
7:35 PM 84.2 °F 83.0 °F 55.4 °F 37% 30.09 in 10.0 mi NNW 5.8 mph - N/A   Mostly Cloudy
7:55 PM 84.2 °F 83.0 °F 55.4 °F 37% 30.10 in 10.0 mi NNW 3.5 mph - N/A   Overcast
8:15 PM 82.4 °F 81.7 °F 55.4 °F 39% 30.10 in 10.0 mi North 5.8 mph - N/A   Overcast
8:35 PM 80.6 °F 80.5 °F 55.4 °F 42% 30.11 in 10.0 mi North 4.6 mph - N/A   Scattered Clouds
8:55 PM 80.6 °F 80.3 °F 53.6 °F 39% 30.12 in 10.0 mi North 3.5 mph - N/A   Clear
9:15 PM 77.0 °F - 55.4 °F 47% 30.12 in 10.0 mi Calm Calm - N/A   Clear
9:35 PM 75.2 °F - 55.4 °F 50% 30.13 in 10.0 mi North 3.5 mph - N/A   Clear
9:55 PM 73.4 °F - 55.4 °F 53% 30.14 in 10.0 mi Calm Calm - N/A   Clear
10:15 PM 71.6 °F - 55.4 °F 57% 30.14 in 10.0 mi Calm Calm - N/A   Clear
10:35 PM 71.6 °F - 55.4 °F 57% 30.15 in 10.0 mi Calm Calm - N/A   Partly Cloudy
10:55 PM 71.6 °F - 53.6 °F 53% 30.15 in 10.0 mi Calm Calm - N/A   Mostly Cloudy
11:15 PM 71.6 °F - 53.6 °F 53% 30.16 in 10.0 mi Calm Calm - N/A   Mostly Cloudy
11:35 PM 69.8 °F - 53.6 °F 56% 30.16 in 10.0 mi Calm Calm - N/A   Scattered Clouds
11:55 PM 69.8 °F - 53.6 °F 56% 30.17 in 10.0 mi Calm Calm - N/A   Partly Cloudy